sensor_id;sensor_type;location;lat;lon;timestamp;P1;durP1;ratioP1;P2;durP2;ratioP2
39022;SDS011;25908;51.984;5.928;2023-02-24T00:01:48;13.45;;;3.25;;
39022;SDS011;25908;51.984;5.928;2023-02-24T00:04:16;17.98;;;4.28;;
39022;SDS011;25908;51.984;5.928;2023-02-24T00:06:44;19.30;;;4.72;;
39022;SDS011;25908;51.984;5.928;2023-02-24T00:09:14;17.63;;;3.70;;
39022;SDS011;25908;51.984;5.928;2023-02-24T00:11:53;21.35;;;4.93;;
39022;SDS011;25908;51.984;5.928;2023-02-24T00:14:21;12.20;;;3.25;;
39022;SDS011;25908;51.984;5.928;2023-02-24T00:16:48;16.52;;;3.88;;
39022;SDS011;25908;51.984;5.928;2023-02-24T00:19:18;26.40;;;3.78;;
39022;SDS011;25908;51.984;5.928;2023-02-24T00:21:46;22.02;;;3.38;;
39022;SDS011;25908;51.984;5.928;2023-02-24T00:24:12;14.90;;;3.60;;
39022;SDS011;25908;51.984;5.928;2023-02-24T00:26:38;19.63;;;4.05;;
39022;SDS011;25908;51.984;5.928;2023-02-24T00:29:05;16.45;;;3.47;;
39022;SDS011;25908;51.984;5.928;2023-02-24T00:31:33;15.90;;;3.28;;
39022;SDS011;25908;51.984;5.928;2023-02-24T00:34:03;16.50;;;3.20;;
39022;SDS011;25908;51.984;5.928;2023-02-24T00:36:30;13.77;;;3.10;;
39022;SDS011;25908;51.984;5.928;2023-02-24T00:39:02;14.27;;;3.42;;
39022;SDS011;25908;51.984;5.928;2023-02-24T00:41:33;17.40;;;3.88;;
39022;SDS011;25908;51.984;5.928;2023-02-24T00:44:04;16.60;;;3.90;;
39022;SDS011;25908;51.984;5.928;2023-02-24T00:49:03;15.18;;;3.42;;
39022;SDS011;25908;51.984;5.928;2023-02-24T00:51:35;18.88;;;3.58;;
39022;SDS011;25908;51.984;5.928;2023-02-24T00:54:02;15.90;;;3.65;;
39022;SDS011;25908;51.984;5.928;2023-02-24T00:56:28;11.95;;;3.58;;
39022;SDS011;25908;51.984;5.928;2023-02-24T00:58:55;20.10;;;3.97;;
39022;SDS011;25908;51.984;5.928;2023-02-24T01:01:23;17.75;;;4.70;;
39022;SDS011;25908;51.984;5.928;2023-02-24T01:03:57;15.95;;;4.00;;
39022;SDS011;25908;51.984;5.928;2023-02-24T01:06:25;14.90;;;3.47;;
39022;SDS011;25908;51.984;5.928;2023-02-24T01:08:53;19.40;;;4.88;;
39022;SDS011;25908;51.984;5.928;2023-02-24T01:11:21;14.68;;;3.80;;
39022;SDS011;25908;51.984;5.928;2023-02-24T01:14:09;12.95;;;4.43;;
39022;SDS011;25908;51.984;5.928;2023-02-24T01:16:37;17.40;;;4.25;;
39022;SDS011;25908;51.984;5.928;2023-02-24T01:19:05;14.63;;;4.30;;
39022;SDS011;25908;51.984;5.928;2023-02-24T01:21:33;17.38;;;4.53;;
39022;SDS011;25908;51.984;5.928;2023-02-24T01:23:59;13.27;;;4.25;;
39022;SDS011;25908;51.984;5.928;2023-02-24T01:26:25;18.02;;;4.43;;
39022;SDS011;25908;51.984;5.928;2023-02-24T01:28:51;14.82;;;4.75;;
39022;SDS011;25908;51.984;5.928;2023-02-24T01:31:18;16.98;;;4.60;;
39022;SDS011;25908;51.984;5.928;2023-02-24T01:33:45;13.38;;;4.20;;
39022;SDS011;25908;51.984;5.928;2023-02-24T01:36:12;13.30;;;3.85;;
39022;SDS011;25908;51.984;5.928;2023-02-24T01:38:40;19.23;;;4.85;;
39022;SDS011;25908;51.984;5.928;2023-02-24T01:41:06;15.23;;;4.40;;
39022;SDS011;25908;51.984;5.928;2023-02-24T01:43:50;17.73;;;5.07;;
39022;SDS011;25908;51.984;5.928;2023-02-24T01:46:30;14.13;;;4.03;;
39022;SDS011;25908;51.984;5.928;2023-02-24T01:52:29;14.00;;;4.05;;
39022;SDS011;25908;51.984;5.928;2023-02-24T01:54:33;11.98;;;3.97;;
39022;SDS011;25908;51.984;5.928;2023-02-24T01:59:30;16.50;;;5.18;;
39022;SDS011;25908;51.984;5.928;2023-02-24T02:01:59;18.85;;;4.78;;
39022;SDS011;25908;51.984;5.928;2023-02-24T02:04:38;16.20;;;4.82;;
39022;SDS011;25908;51.984;5.928;2023-02-24T02:07:21;15.07;;;3.92;;
39022;SDS011;25908;51.984;5.928;2023-02-24T02:09:48;13.35;;;4.53;;
39022;SDS011;25908;51.984;5.928;2023-02-24T02:12:17;15.88;;;4.75;;
39022;SDS011;25908;51.984;5.928;2023-02-24T02:14:43;14.35;;;4.82;;
39022;SDS011;25908;51.984;5.928;2023-02-24T02:28:20;16.27;;;5.38;;
39022;SDS011;25908;51.984;5.928;2023-02-24T02:37:01;13.45;;;5.40;;
39022;SDS011;25908;51.984;5.928;2023-02-24T02:42:57;14.63;;;5.20;;
39022;SDS011;25908;51.984;5.928;2023-02-24T02:45:51;15.55;;;5.60;;
39022;SDS011;25908;51.984;5.928;2023-02-24T02:48:31;19.58;;;6.03;;
39022;SDS011;25908;51.984;5.928;2023-02-24T02:51:02;20.33;;;6.82;;
39022;SDS011;25908;51.984;5.928;2023-02-24T02:53:34;13.75;;;5.05;;
39022;SDS011;25908;51.984;5.928;2023-02-24T02:56:15;14.55;;;4.78;;
39022;SDS011;25908;51.984;5.928;2023-02-24T02:58:51;14.25;;;5.00;;
39022;SDS011;25908;51.984;5.928;2023-02-24T03:01:20;18.73;;;5.90;;
39022;SDS011;25908;51.984;5.928;2023-02-24T03:03:51;17.35;;;5.43;;
39022;SDS011;25908;51.984;5.928;2023-02-24T03:06:27;15.63;;;5.00;;
39022;SDS011;25908;51.984;5.928;2023-02-24T03:11:39;15.15;;;4.90;;
39022;SDS011;25908;51.984;5.928;2023-02-24T03:14:06;11.48;;;4.70;;
39022;SDS011;25908;51.984;5.928;2023-02-24T03:16:38;13.73;;;4.65;;
39022;SDS011;25908;51.984;5.928;2023-02-24T03:19:07;17.10;;;4.85;;
39022;SDS011;25908;51.984;5.928;2023-02-24T03:21:39;12.88;;;4.65;;
39022;SDS011;25908;51.984;5.928;2023-02-24T03:24:10;15.52;;;4.68;;
39022;SDS011;25908;51.984;5.928;2023-02-24T03:34:56;10.07;;;4.32;;
39022;SDS011;25908;51.984;5.928;2023-02-24T03:37:37;14.02;;;4.45;;
39022;SDS011;25908;51.984;5.928;2023-02-24T03:40:06;12.73;;;4.57;;
39022;SDS011;25908;51.984;5.928;2023-02-24T03:42:35;13.80;;;4.47;;
39022;SDS011;25908;51.984;5.928;2023-02-24T03:45:05;11.38;;;4.22;;
39022;SDS011;25908;51.984;5.928;2023-02-24T03:47:32;10.93;;;3.92;;
39022;SDS011;25908;51.984;5.928;2023-02-24T03:49:58;14.80;;;4.88;;
39022;SDS011;25908;51.984;5.928;2023-02-24T04:08:44;14.18;;;4.88;;
39022;SDS011;25908;51.984;5.928;2023-02-24T04:11:19;11.02;;;4.15;;
39022;SDS011;25908;51.984;5.928;2023-02-24T04:13:53;16.02;;;4.30;;
39022;SDS011;25908;51.984;5.928;2023-02-24T04:16:33;11.70;;;4.15;;
39022;SDS011;25908;51.984;5.928;2023-02-24T04:19:07;14.45;;;4.30;;
39022;SDS011;25908;51.984;5.928;2023-02-24T04:21:38;17.75;;;4.13;;
39022;SDS011;25908;51.984;5.928;2023-02-24T04:24:07;13.77;;;4.07;;
39022;SDS011;25908;51.984;5.928;2023-02-24T04:26:40;12.05;;;3.90;;
39022;SDS011;25908;51.984;5.928;2023-02-24T04:29:09;13.70;;;3.90;;
39022;SDS011;25908;51.984;5.928;2023-02-24T04:31:42;10.15;;;4.10;;
39022;SDS011;25908;51.984;5.928;2023-02-24T04:34:13;14.38;;;4.22;;
39022;SDS011;25908;51.984;5.928;2023-02-24T04:39:15;14.18;;;3.50;;
39022;SDS011;25908;51.984;5.928;2023-02-24T04:41:43;13.10;;;4.00;;
39022;SDS011;25908;51.984;5.928;2023-02-24T04:44:15;14.95;;;3.78;;
39022;SDS011;25908;51.984;5.928;2023-02-24T04:46:45;10.07;;;3.97;;
39022;SDS011;25908;51.984;5.928;2023-02-24T04:49:11;14.80;;;4.82;;
39022;SDS011;25908;51.984;5.928;2023-02-24T04:51:38;18.38;;;4.15;;
39022;SDS011;25908;51.984;5.928;2023-02-24T04:54:10;15.98;;;4.13;;
39022;SDS011;25908;51.984;5.928;2023-02-24T04:56:41;16.10;;;3.78;;
39022;SDS011;25908;51.984;5.928;2023-02-24T04:59:08;12.48;;;4.55;;
39022;SDS011;25908;51.984;5.928;2023-02-24T05:01:35;14.10;;;4.00;;
39022;SDS011;25908;51.984;5.928;2023-02-24T05:04:04;15.32;;;4.40;;
39022;SDS011;25908;51.984;5.928;2023-02-24T05:06:30;14.57;;;3.63;;
39022;SDS011;25908;51.984;5.928;2023-02-24T05:08:56;21.63;;;4.00;;
39022;SDS011;25908;51.984;5.928;2023-02-24T05:11:22;16.77;;;4.10;;
39022;SDS011;25908;51.984;5.928;2023-02-24T05:13:47;16.08;;;3.95;;
39022;SDS011;25908;51.984;5.928;2023-02-24T05:16:14;14.45;;;3.55;;
39022;SDS011;25908;51.984;5.928;2023-02-24T05:18:42;8.90;;;3.40;;
39022;SDS011;25908;51.984;5.928;2023-02-24T05:21:10;13.25;;;3.63;;
39022;SDS011;25908;51.984;5.928;2023-02-24T05:23:56;13.32;;;3.50;;
39022;SDS011;25908;51.984;5.928;2023-02-24T05:26:23;17.17;;;4.00;;
39022;SDS011;25908;51.984;5.928;2023-02-24T05:28:50;11.70;;;3.38;;
39022;SDS011;25908;51.984;5.928;2023-02-24T05:31:20;18.90;;;3.83;;
39022;SDS011;25908;51.984;5.928;2023-02-24T05:33:54;15.52;;;3.45;;
39022;SDS011;25908;51.984;5.928;2023-02-24T05:36:22;14.23;;;3.47;;
39022;SDS011;25908;51.984;5.928;2023-02-24T05:38:49;13.93;;;3.50;;
39022;SDS011;25908;51.984;5.928;2023-02-24T05:41:19;14.05;;;4.07;;
39022;SDS011;25908;51.984;5.928;2023-02-24T05:43:49;14.15;;;3.53;;
39022;SDS011;25908;51.984;5.928;2023-02-24T05:46:21;10.35;;;3.30;;
39022;SDS011;25908;51.984;5.928;2023-02-24T05:48:52;13.43;;;3.75;;
39022;SDS011;25908;51.984;5.928;2023-02-24T05:51:21;12.25;;;3.20;;
39022;SDS011;25908;51.984;5.928;2023-02-24T05:53:48;14.23;;;3.72;;
39022;SDS011;25908;51.984;5.928;2023-02-24T05:56:19;11.32;;;3.88;;
39022;SDS011;25908;51.984;5.928;2023-02-24T05:58:48;14.27;;;3.53;;
39022;SDS011;25908;51.984;5.928;2023-02-24T06:01:14;15.52;;;3.35;;
39022;SDS011;25908;51.984;5.928;2023-02-24T06:03:44;14.30;;;3.42;;
39022;SDS011;25908;51.984;5.928;2023-02-24T06:06:12;16.92;;;3.70;;
39022;SDS011;25908;51.984;5.928;2023-02-24T06:08:41;15.77;;;3.63;;
39022;SDS011;25908;51.984;5.928;2023-02-24T06:11:13;15.40;;;3.80;;
39022;SDS011;25908;51.984;5.928;2023-02-24T06:13:43;15.27;;;3.95;;
39022;SDS011;25908;51.984;5.928;2023-02-24T06:16:12;10.23;;;3.28;;
39022;SDS011;25908;51.984;5.928;2023-02-24T06:18:42;10.65;;;3.88;;
39022;SDS011;25908;51.984;5.928;2023-02-24T06:21:11;12.77;;;4.20;;
39022;SDS011;25908;51.984;5.928;2023-02-24T06:23:37;13.30;;;3.83;;
39022;SDS011;25908;51.984;5.928;2023-02-24T06:26:06;15.32;;;4.53;;
39022;SDS011;25908;51.984;5.928;2023-02-24T06:28:37;16.10;;;3.95;;
39022;SDS011;25908;51.984;5.928;2023-02-24T06:31:04;19.80;;;5.78;;
39022;SDS011;25908;51.984;5.928;2023-02-24T06:33:34;18.48;;;4.30;;
39022;SDS011;25908;51.984;5.928;2023-02-24T06:36:01;17.08;;;4.28;;
39022;SDS011;25908;51.984;5.928;2023-02-24T06:38:28;19.45;;;4.43;;
39022;SDS011;25908;51.984;5.928;2023-02-24T06:40:58;12.77;;;3.67;;
39022;SDS011;25908;51.984;5.928;2023-02-24T06:43:27;14.98;;;3.75;;
39022;SDS011;25908;51.984;5.928;2023-02-24T06:45:52;16.55;;;3.92;;
39022;SDS011;25908;51.984;5.928;2023-02-24T06:48:19;13.65;;;3.90;;
39022;SDS011;25908;51.984;5.928;2023-02-24T06:50:46;14.85;;;3.72;;
39022;SDS011;25908;51.984;5.928;2023-02-24T06:53:14;17.02;;;4.00;;
39022;SDS011;25908;51.984;5.928;2023-02-24T06:55:44;15.23;;;3.50;;
39022;SDS011;25908;51.984;5.928;2023-02-24T06:58:19;16.15;;;4.25;;
39022;SDS011;25908;51.984;5.928;2023-02-24T07:00:48;12.07;;;3.45;;
39022;SDS011;25908;51.984;5.928;2023-02-24T07:03:23;8.65;;;3.60;;
39022;SDS011;25908;51.984;5.928;2023-02-24T07:06:08;17.65;;;5.13;;
39022;SDS011;25908;51.984;5.928;2023-02-24T07:08:48;14.60;;;3.40;;
39022;SDS011;25908;51.984;5.928;2023-02-24T07:11:15;13.80;;;3.80;;
39022;SDS011;25908;51.984;5.928;2023-02-24T07:13:42;14.70;;;3.95;;
39022;SDS011;25908;51.984;5.928;2023-02-24T07:16:09;18.30;;;3.83;;
39022;SDS011;25908;51.984;5.928;2023-02-24T07:18:36;10.85;;;3.47;;
39022;SDS011;25908;51.984;5.928;2023-02-24T07:21:05;13.05;;;3.90;;
39022;SDS011;25908;51.984;5.928;2023-02-24T07:23:40;12.85;;;4.25;;
39022;SDS011;25908;51.984;5.928;2023-02-24T07:26:08;12.20;;;3.70;;
39022;SDS011;25908;51.984;5.928;2023-02-24T07:28:36;13.10;;;3.22;;
39022;SDS011;25908;51.984;5.928;2023-02-24T07:31:10;14.23;;;3.53;;
39022;SDS011;25908;51.984;5.928;2023-02-24T07:33:38;12.63;;;4.90;;
39022;SDS011;25908;51.984;5.928;2023-02-24T07:36:05;13.48;;;3.65;;
39022;SDS011;25908;51.984;5.928;2023-02-24T07:38:37;10.02;;;3.22;;
39022;SDS011;25908;51.984;5.928;2023-02-24T07:41:04;11.10;;;3.10;;
39022;SDS011;25908;51.984;5.928;2023-02-24T07:43:34;12.95;;;3.30;;
39022;SDS011;25908;51.984;5.928;2023-02-24T07:46:04;12.57;;;2.70;;
39022;SDS011;25908;51.984;5.928;2023-02-24T07:48:33;11.05;;;3.28;;
39022;SDS011;25908;51.984;5.928;2023-02-24T07:51:00;13.18;;;3.15;;
39022;SDS011;25908;51.984;5.928;2023-02-24T07:53:30;10.40;;;2.63;;
39022;SDS011;25908;51.984;5.928;2023-02-24T07:55:55;19.27;;;3.50;;
39022;SDS011;25908;51.984;5.928;2023-02-24T07:58:21;10.57;;;2.88;;
39022;SDS011;25908;51.984;5.928;2023-02-24T08:00:47;13.10;;;3.35;;
39022;SDS011;25908;51.984;5.928;2023-02-24T08:03:31;10.07;;;2.30;;
39022;SDS011;25908;51.984;5.928;2023-02-24T08:05:57;7.50;;;2.70;;
39022;SDS011;25908;51.984;5.928;2023-02-24T08:08:37;12.65;;;3.08;;
39022;SDS011;25908;51.984;5.928;2023-02-24T08:11:21;13.05;;;2.70;;
39022;SDS011;25908;51.984;5.928;2023-02-24T08:13:51;9.52;;;2.17;;
39022;SDS011;25908;51.984;5.928;2023-02-24T08:16:17;10.68;;;2.13;;
39022;SDS011;25908;51.984;5.928;2023-02-24T08:18:43;15.45;;;3.17;;
39022;SDS011;25908;51.984;5.928;2023-02-24T08:21:15;14.30;;;2.70;;
39022;SDS011;25908;51.984;5.928;2023-02-24T08:23:43;11.93;;;2.85;;
39022;SDS011;25908;51.984;5.928;2023-02-24T08:26:11;8.00;;;2.28;;
39022;SDS011;25908;51.984;5.928;2023-02-24T08:28:39;9.45;;;3.00;;
39022;SDS011;25908;51.984;5.928;2023-02-24T08:31:05;10.50;;;2.38;;
39022;SDS011;25908;51.984;5.928;2023-02-24T08:33:31;20.73;;;2.67;;
39022;SDS011;25908;51.984;5.928;2023-02-24T08:36:01;10.10;;;2.53;;
39022;SDS011;25908;51.984;5.928;2023-02-24T08:38:28;10.70;;;2.75;;
39022;SDS011;25908;51.984;5.928;2023-02-24T08:41:04;14.88;;;2.15;;
39022;SDS011;25908;51.984;5.928;2023-02-24T08:43:38;8.75;;;2.15;;
39022;SDS011;25908;51.984;5.928;2023-02-24T08:46:11;16.08;;;2.05;;
39022;SDS011;25908;51.984;5.928;2023-02-24T08:48:58;16.27;;;2.45;;
39022;SDS011;25908;51.984;5.928;2023-02-24T08:51:34;8.48;;;2.35;;
39022;SDS011;25908;51.984;5.928;2023-02-24T08:54:08;15.13;;;2.25;;
39022;SDS011;25908;51.984;5.928;2023-02-24T08:56:45;12.75;;;2.22;;
39022;SDS011;25908;51.984;5.928;2023-02-24T08:59:20;14.50;;;2.60;;
39022;SDS011;25908;51.984;5.928;2023-02-24T09:01:56;14.80;;;2.42;;
39022;SDS011;25908;51.984;5.928;2023-02-24T09:04:45;11.50;;;2.25;;
39022;SDS011;25908;51.984;5.928;2023-02-24T09:07:17;7.90;;;2.22;;
39022;SDS011;25908;51.984;5.928;2023-02-24T09:09:44;11.68;;;2.20;;
39022;SDS011;25908;51.984;5.928;2023-02-24T09:12:11;12.02;;;2.78;;
39022;SDS011;25908;51.984;5.928;2023-02-24T09:14:49;9.57;;;1.95;;
39022;SDS011;25908;51.984;5.928;2023-02-24T09:19:52;10.70;;;3.15;;
39022;SDS011;25908;51.984;5.928;2023-02-24T09:22:37;12.68;;;2.72;;
39022;SDS011;25908;51.984;5.928;2023-02-24T09:25:22;16.23;;;3.08;;
39022;SDS011;25908;51.984;5.928;2023-02-24T09:30:28;10.87;;;2.60;;
39022;SDS011;25908;51.984;5.928;2023-02-24T09:33:03;9.10;;;2.42;;
39022;SDS011;25908;51.984;5.928;2023-02-24T09:35:41;7.68;;;2.10;;
39022;SDS011;25908;51.984;5.928;2023-02-24T09:38:15;14.20;;;3.33;;
39022;SDS011;25908;51.984;5.928;2023-02-24T09:40:43;14.45;;;2.65;;
39022;SDS011;25908;51.984;5.928;2023-02-24T09:46:01;13.52;;;2.83;;
39022;SDS011;25908;51.984;5.928;2023-02-24T09:48:41;10.88;;;2.47;;
39022;SDS011;25908;51.984;5.928;2023-02-24T09:51:18;14.00;;;2.85;;
39022;SDS011;25908;51.984;5.928;2023-02-24T09:53:47;11.43;;;2.85;;
39022;SDS011;25908;51.984;5.928;2023-02-24T10:04:49;12.20;;;2.60;;
39022;SDS011;25908;51.984;5.928;2023-02-24T10:07:32;14.35;;;3.25;;
39022;SDS011;25908;51.984;5.928;2023-02-24T10:10:22;13.48;;;2.65;;
39022;SDS011;25908;51.984;5.928;2023-02-24T10:15:37;9.77;;;2.60;;
39022;SDS011;25908;51.984;5.928;2023-02-24T10:21:41;14.43;;;3.05;;
39022;SDS011;25908;51.984;5.928;2023-02-24T10:27:17;7.93;;;3.15;;
39022;SDS011;25908;51.984;5.928;2023-02-24T10:32:31;10.00;;;2.70;;
39022;SDS011;25908;51.984;5.928;2023-02-24T10:35:02;12.63;;;3.25;;
39022;SDS011;25908;51.984;5.928;2023-02-24T10:37:27;14.50;;;3.30;;
39022;SDS011;25908;51.984;5.928;2023-02-24T10:39:58;14.63;;;3.45;;
39022;SDS011;25908;51.984;5.928;2023-02-24T10:42:33;14.07;;;3.17;;
39022;SDS011;25908;51.984;5.928;2023-02-24T10:47:51;13.00;;;3.03;;
39022;SDS011;25908;51.984;5.928;2023-02-24T10:50:38;12.18;;;3.05;;
39022;SDS011;25908;51.984;5.928;2023-02-24T10:53:15;12.48;;;3.35;;
39022;SDS011;25908;51.984;5.928;2023-02-24T10:56:02;11.82;;;3.45;;
39022;SDS011;25908;51.984;5.928;2023-02-24T11:02:22;14.23;;;3.85;;
39022;SDS011;25908;51.984;5.928;2023-02-24T11:04:53;15.52;;;4.15;;
39022;SDS011;25908;51.984;5.928;2023-02-24T11:07:23;16.25;;;4.35;;
39022;SDS011;25908;51.984;5.928;2023-02-24T11:10:04;22.98;;;6.30;;
39022;SDS011;25908;51.984;5.928;2023-02-24T11:12:36;14.02;;;5.13;;
39022;SDS011;25908;51.984;5.928;2023-02-24T11:18:18;10.50;;;4.28;;
39022;SDS011;25908;51.984;5.928;2023-02-24T11:20:47;13.70;;;4.72;;
39022;SDS011;25908;51.984;5.928;2023-02-24T11:23:17;17.13;;;5.03;;
39022;SDS011;25908;51.984;5.928;2023-02-24T11:25:52;20.60;;;6.15;;
39022;SDS011;25908;51.984;5.928;2023-02-24T11:28:30;16.98;;;5.25;;
39022;SDS011;25908;51.984;5.928;2023-02-24T11:31:11;14.63;;;5.28;;
39022;SDS011;25908;51.984;5.928;2023-02-24T11:36:48;16.27;;;6.40;;
39022;SDS011;25908;51.984;5.928;2023-02-24T11:39:30;18.67;;;5.32;;
39022;SDS011;25908;51.984;5.928;2023-02-24T11:42:11;16.55;;;5.47;;
39022;SDS011;25908;51.984;5.928;2023-02-24T11:47:48;15.70;;;5.40;;
39022;SDS011;25908;51.984;5.928;2023-02-24T11:52:57;10.63;;;5.35;;
39022;SDS011;25908;51.984;5.928;2023-02-24T11:58:06;17.77;;;6.55;;
39022;SDS011;25908;51.984;5.928;2023-02-24T12:00:56;15.68;;;5.20;;
39022;SDS011;25908;51.984;5.928;2023-02-24T12:03:26;18.73;;;6.75;;
39022;SDS011;25908;51.984;5.928;2023-02-24T12:05:55;13.57;;;6.25;;
39022;SDS011;25908;51.984;5.928;2023-02-24T12:08:30;22.42;;;7.00;;
39022;SDS011;25908;51.984;5.928;2023-02-24T12:11:02;16.75;;;7.75;;
39022;SDS011;25908;51.984;5.928;2023-02-24T12:13:37;14.63;;;6.72;;
39022;SDS011;25908;51.984;5.928;2023-02-24T12:16:14;17.08;;;7.88;;
39022;SDS011;25908;51.984;5.928;2023-02-24T12:18:58;16.60;;;7.22;;
39022;SDS011;25908;51.984;5.928;2023-02-24T12:21:32;13.82;;;7.53;;
39022;SDS011;25908;51.984;5.928;2023-02-24T12:24:02;14.60;;;7.38;;
39022;SDS011;25908;51.984;5.928;2023-02-24T12:26:52;16.23;;;7.95;;
39022;SDS011;25908;51.984;5.928;2023-02-24T12:32:13;19.15;;;8.10;;
39022;SDS011;25908;51.984;5.928;2023-02-24T12:40:31;17.13;;;8.60;;
39022;SDS011;25908;51.984;5.928;2023-02-24T12:46:01;14.82;;;8.57;;
39022;SDS011;25908;51.984;5.928;2023-02-24T12:56:40;11.45;;;7.07;;
39022;SDS011;25908;51.984;5.928;2023-02-24T12:59:18;14.02;;;8.57;;
39022;SDS011;25908;51.984;5.928;2023-02-24T13:02:05;14.82;;;8.10;;
39022;SDS011;25908;51.984;5.928;2023-02-24T13:13:08;18.13;;;8.75;;
39022;SDS011;25908;51.984;5.928;2023-02-24T13:15:35;18.27;;;8.38;;
39022;SDS011;25908;51.984;5.928;2023-02-24T13:18:00;14.40;;;7.80;;
39022;SDS011;25908;51.984;5.928;2023-02-24T13:20:27;18.67;;;8.13;;
39022;SDS011;25908;51.984;5.928;2023-02-24T13:22:55;14.23;;;7.90;;
39022;SDS011;25908;51.984;5.928;2023-02-24T13:25:33;19.17;;;8.88;;
39022;SDS011;25908;51.984;5.928;2023-02-24T13:28:21;19.85;;;8.95;;
39022;SDS011;25908;51.984;5.928;2023-02-24T13:30:59;18.25;;;8.27;;
39022;SDS011;25908;51.984;5.928;2023-02-24T13:33:34;14.68;;;7.22;;
39022;SDS011;25908;51.984;5.928;2023-02-24T13:41:19;19.45;;;7.47;;
39022;SDS011;25908;51.984;5.928;2023-02-24T13:52:19;18.08;;;6.53;;
39022;SDS011;25908;51.984;5.928;2023-02-24T13:57:48;18.52;;;6.70;;
39022;SDS011;25908;51.984;5.928;2023-02-24T14:00:38;21.73;;;7.57;;
39022;SDS011;25908;51.984;5.928;2023-02-24T14:03:29;16.73;;;5.18;;
39022;SDS011;25908;51.984;5.928;2023-02-24T14:05:56;18.05;;;5.60;;
39022;SDS011;25908;51.984;5.928;2023-02-24T14:08:33;26.13;;;6.22;;
39022;SDS011;25908;51.984;5.928;2023-02-24T14:10:59;18.42;;;5.30;;
39022;SDS011;25908;51.984;5.928;2023-02-24T14:13:28;20.77;;;4.75;;
39022;SDS011;25908;51.984;5.928;2023-02-24T14:15:58;26.13;;;6.78;;
39022;SDS011;25908;51.984;5.928;2023-02-24T14:18:28;23.98;;;4.55;;
39022;SDS011;25908;51.984;5.928;2023-02-24T14:20:55;24.77;;;5.38;;
39022;SDS011;25908;51.984;5.928;2023-02-24T14:23:23;17.20;;;3.05;;
39022;SDS011;25908;51.984;5.928;2023-02-24T14:25:57;18.55;;;3.58;;
39022;SDS011;25908;51.984;5.928;2023-02-24T14:28:35;13.35;;;2.92;;
39022;SDS011;25908;51.984;5.928;2023-02-24T14:31:10;12.40;;;2.30;;
39022;SDS011;25908;51.984;5.928;2023-02-24T14:33:41;8.85;;;2.00;;
39022;SDS011;25908;51.984;5.928;2023-02-24T14:36:19;10.23;;;1.92;;
39022;SDS011;25908;51.984;5.928;2023-02-24T14:39:05;15.35;;;2.58;;
39022;SDS011;25908;51.984;5.928;2023-02-24T14:41:34;14.40;;;2.22;;
39022;SDS011;25908;51.984;5.928;2023-02-24T14:44:04;13.20;;;1.77;;
39022;SDS011;25908;51.984;5.928;2023-02-24T14:46:45;7.97;;;1.90;;
39022;SDS011;25908;51.984;5.928;2023-02-24T14:49:14;10.43;;;1.65;;
39022;SDS011;25908;51.984;5.928;2023-02-24T14:51:47;16.88;;;3.22;;
39022;SDS011;25908;51.984;5.928;2023-02-24T14:54:18;11.20;;;2.10;;
39022;SDS011;25908;51.984;5.928;2023-02-24T14:56:48;11.63;;;2.15;;
39022;SDS011;25908;51.984;5.928;2023-02-24T14:59:15;12.23;;;2.03;;
39022;SDS011;25908;51.984;5.928;2023-02-24T15:01:48;9.50;;;1.77;;
39022;SDS011;25908;51.984;5.928;2023-02-24T15:04:35;11.85;;;2.15;;
39022;SDS011;25908;51.984;5.928;2023-02-24T15:07:04;10.13;;;2.13;;
39022;SDS011;25908;51.984;5.928;2023-02-24T15:09:33;14.52;;;2.78;;
39022;SDS011;25908;51.984;5.928;2023-02-24T15:14:55;19.13;;;3.08;;
39022;SDS011;25908;51.984;5.928;2023-02-24T15:17:25;23.13;;;3.55;;
39022;SDS011;25908;51.984;5.928;2023-02-24T15:19:51;14.27;;;2.85;;
39022;SDS011;25908;51.984;5.928;2023-02-24T15:24:49;14.52;;;2.47;;
39022;SDS011;25908;51.984;5.928;2023-02-24T15:27:34;15.30;;;2.63;;
39022;SDS011;25908;51.984;5.928;2023-02-24T15:30:07;18.35;;;2.72;;
39022;SDS011;25908;51.984;5.928;2023-02-24T15:32:48;18.58;;;2.78;;
39022;SDS011;25908;51.984;5.928;2023-02-24T15:35:24;15.13;;;2.88;;
39022;SDS011;25908;51.984;5.928;2023-02-24T15:37:50;13.05;;;1.80;;
39022;SDS011;25908;51.984;5.928;2023-02-24T15:40:18;11.27;;;2.10;;
39022;SDS011;25908;51.984;5.928;2023-02-24T15:46:33;12.07;;;1.73;;
39022;SDS011;25908;51.984;5.928;2023-02-24T15:48:59;8.80;;;1.38;;
39022;SDS011;25908;51.984;5.928;2023-02-24T15:54:03;11.27;;;1.75;;
39022;SDS011;25908;51.984;5.928;2023-02-24T15:56:36;5.60;;;1.17;;
39022;SDS011;25908;51.984;5.928;2023-02-24T15:59:02;6.93;;;1.20;;
39022;SDS011;25908;51.984;5.928;2023-02-24T16:01:30;6.55;;;0.93;;
39022;SDS011;25908;51.984;5.928;2023-02-24T16:03:57;7.05;;;1.30;;
39022;SDS011;25908;51.984;5.928;2023-02-24T16:06:24;10.10;;;1.40;;
39022;SDS011;25908;51.984;5.928;2023-02-24T16:08:51;5.43;;;1.10;;
39022;SDS011;25908;51.984;5.928;2023-02-24T16:11:20;7.03;;;1.08;;
39022;SDS011;25908;51.984;5.928;2023-02-24T16:16:18;6.30;;;1.13;;
39022;SDS011;25908;51.984;5.928;2023-02-24T16:18:44;3.30;;;1.08;;
39022;SDS011;25908;51.984;5.928;2023-02-24T16:21:10;4.03;;;0.90;;
39022;SDS011;25908;51.984;5.928;2023-02-24T16:23:36;6.75;;;1.13;;
39022;SDS011;25908;51.984;5.928;2023-02-24T16:26:04;7.07;;;1.20;;
39022;SDS011;25908;51.984;5.928;2023-02-24T16:28:37;4.65;;;1.33;;
39022;SDS011;25908;51.984;5.928;2023-02-24T16:31:02;8.10;;;1.33;;
39022;SDS011;25908;51.984;5.928;2023-02-24T16:33:30;12.57;;;2.10;;
39022;SDS011;25908;51.984;5.928;2023-02-24T16:35:57;5.68;;;1.05;;
39022;SDS011;25908;51.984;5.928;2023-02-24T16:38:23;8.52;;;1.33;;
39022;SDS011;25908;51.984;5.928;2023-02-24T16:40:52;5.80;;;1.17;;
39022;SDS011;25908;51.984;5.928;2023-02-24T16:43:18;4.78;;;0.90;;
39022;SDS011;25908;51.984;5.928;2023-02-24T16:45:44;7.80;;;1.30;;
39022;SDS011;25908;51.984;5.928;2023-02-24T16:48:15;8.50;;;1.23;;
39022;SDS011;25908;51.984;5.928;2023-02-24T16:50:45;9.65;;;1.98;;
39022;SDS011;25908;51.984;5.928;2023-02-24T16:53:13;10.38;;;1.67;;
39022;SDS011;25908;51.984;5.928;2023-02-24T16:55:40;7.05;;;1.05;;
39022;SDS011;25908;51.984;5.928;2023-02-24T16:58:07;8.85;;;1.00;;
39022;SDS011;25908;51.984;5.928;2023-02-24T17:00:33;9.75;;;1.55;;
39022;SDS011;25908;51.984;5.928;2023-02-24T17:02:59;6.40;;;1.77;;
39022;SDS011;25908;51.984;5.928;2023-02-24T17:05:30;13.50;;;2.05;;
39022;SDS011;25908;51.984;5.928;2023-02-24T17:07:55;5.25;;;1.40;;
39022;SDS011;25908;51.984;5.928;2023-02-24T17:10:21;12.95;;;1.40;;
39022;SDS011;25908;51.984;5.928;2023-02-24T17:12:48;8.30;;;1.70;;
39022;SDS011;25908;51.984;5.928;2023-02-24T17:15:18;7.05;;;1.35;;
39022;SDS011;25908;51.984;5.928;2023-02-24T17:17:46;12.73;;;2.53;;
39022;SDS011;25908;51.984;5.928;2023-02-24T17:20:13;16.95;;;1.77;;
39022;SDS011;25908;51.984;5.928;2023-02-24T17:22:40;6.55;;;1.48;;
39022;SDS011;25908;51.984;5.928;2023-02-24T17:25:05;11.32;;;1.92;;
39022;SDS011;25908;51.984;5.928;2023-02-24T17:27:32;8.55;;;1.85;;
39022;SDS011;25908;51.984;5.928;2023-02-24T17:29:57;9.32;;;1.67;;
39022;SDS011;25908;51.984;5.928;2023-02-24T17:32:23;10.68;;;1.90;;
39022;SDS011;25908;51.984;5.928;2023-02-24T17:34:48;10.65;;;2.20;;
39022;SDS011;25908;51.984;5.928;2023-02-24T17:37:14;9.73;;;1.70;;
39022;SDS011;25908;51.984;5.928;2023-02-24T17:39:40;13.90;;;2.40;;
39022;SDS011;25908;51.984;5.928;2023-02-24T17:42:06;9.93;;;1.88;;
39022;SDS011;25908;51.984;5.928;2023-02-24T17:44:31;10.80;;;1.50;;
39022;SDS011;25908;51.984;5.928;2023-02-24T17:46:57;10.05;;;1.98;;